createdAt,value
2023-04-12T00:01:20.819Z,98536.55
2023-04-12T00:03:51.247Z,98533.34
2023-04-12T00:06:28.956Z,98532.94
2023-04-12T00:09:00.881Z,98527.70
2023-04-12T00:11:33.794Z,98524.70
2023-04-12T00:14:03.358Z,98518.27
2023-04-12T00:16:32.997Z,98510.02
2023-04-12T00:19:02.021Z,98505.94
2023-04-12T00:21:31.424Z,98497.26
2023-04-12T00:24:00.308Z,98493.00
2023-04-12T00:26:29.457Z,98497.48
2023-04-12T00:28:58.357Z,98497.43
2023-04-12T00:31:27.816Z,98490.73
2023-04-12T00:33:56.912Z,98484.46
2023-04-12T00:36:29.781Z,98484.83
2023-04-12T00:39:01.380Z,98485.52
2023-04-12T00:41:32.488Z,98489.23
2023-04-12T00:44:05.940Z,98486.33
2023-04-12T00:46:39.021Z,98481.08
2023-04-12T00:49:09.952Z,98474.84
2023-04-12T00:51:40.327Z,98473.84
2023-04-12T00:54:09.982Z,98471.98
2023-04-12T00:56:40.711Z,98474.43
2023-04-12T00:59:10.170Z,98477.11
2023-04-12T01:01:41.712Z,98476.14
2023-04-12T01:04:14.405Z,98473.71
2023-04-12T01:07:08.238Z,98475.28
2023-04-12T01:09:46.127Z,98472.46
2023-04-12T01:12:25.412Z,98468.11
2023-04-12T01:15:06.611Z,98457.52
2023-04-12T01:17:58.580Z,98456.61
2023-04-12T01:20:32.474Z,98458.98
2023-04-12T01:23:15.501Z,98458.77
2023-04-12T01:26:22.409Z,98458.54
2023-04-12T01:28:55.115Z,98452.10
2023-04-12T01:31:26.645Z,98445.46
2023-04-12T01:33:59.209Z,98452.21
2023-04-12T01:36:29.980Z,98448.67
2023-04-12T01:38:59.040Z,98452.57
2023-04-12T01:41:28.030Z,98456.86
2023-04-12T01:43:56.950Z,98456.36
2023-04-12T01:46:26.439Z,98451.43
2023-04-12T01:48:55.461Z,98450.58
2023-04-12T01:51:48.737Z,98447.81
2023-04-12T01:54:25.447Z,98448.13
2023-04-12T01:57:00.111Z,98448.05
2023-04-12T01:59:41.874Z,98448.15
2023-04-12T02:02:12.769Z,98443.13
2023-04-12T02:04:43.750Z,98442.67
2023-04-12T02:07:14.130Z,98434.18
2023-04-12T02:09:43.048Z,98430.55
2023-04-12T02:12:12.104Z,98429.69
2023-04-12T02:14:41.289Z,98426.96
2023-04-12T02:17:10.221Z,98424.65
2023-04-12T02:19:39.612Z,98423.46
2023-04-12T02:22:08.730Z,98412.17
2023-04-12T02:24:37.524Z,98414.94
2023-04-12T02:27:06.456Z,98420.09
2023-04-12T02:29:35.243Z,98421.61
2023-04-12T02:32:04.116Z,98428.09
2023-04-12T02:34:34.810Z,98426.67
2023-04-12T02:37:05.354Z,98424.94
2023-04-12T02:39:34.948Z,98421.51
2023-04-12T02:42:04.359Z,98421.19
2023-04-12T02:44:33.770Z,98420.39
2023-04-12T02:47:02.904Z,98423.60
2023-04-12T02:49:31.803Z,98419.66
2023-04-12T02:52:02.705Z,98418.88
2023-04-12T02:54:31.550Z,98419.42
2023-04-12T02:57:00.984Z,98418.44
2023-04-12T02:59:32.219Z,98410.30
2023-04-12T03:02:01.992Z,98403.48
2023-04-12T03:04:31.488Z,98405.27
2023-04-12T03:07:00.471Z,98403.23
2023-04-12T03:09:29.363Z,98399.29
2023-04-12T03:11:58.600Z,98397.64
2023-04-12T03:14:27.453Z,98387.56
2023-04-12T03:16:56.970Z,98383.44
2023-04-12T03:19:26.171Z,98384.53
2023-04-12T03:21:55.363Z,98382.82
2023-04-12T03:24:24.523Z,98386.82
2023-04-12T03:26:53.446Z,98386.02
2023-04-12T03:29:26.884Z,98385.23
2023-04-12T03:31:58.594Z,98380.34
2023-04-12T03:34:32.535Z,98373.02
2023-04-12T03:37:04.714Z,98371.67
2023-04-12T03:39:33.565Z,98380.11
2023-04-12T03:42:02.907Z,98378.46
2023-04-12T03:44:33.128Z,98383.52
2023-04-12T03:47:01.989Z,98384.45
2023-04-12T03:49:31.060Z,98387.01
2023-04-12T03:52:00.038Z,98390.30
2023-04-12T03:54:28.975Z,98396.15
2023-04-12T03:56:58.041Z,98393.05
2023-04-12T03:59:27.139Z,98390.42
2023-04-12T04:02:00.591Z,98388.34
2023-04-12T04:04:29.902Z,98397.94
2023-04-12T04:06:58.904Z,98394.93
2023-04-12T04:09:28.537Z,98391.43
2023-04-12T04:11:57.431Z,98384.79
2023-04-12T04:14:28.289Z,98385.86
2023-04-12T04:16:57.316Z,98382.77
2023-04-12T04:19:26.242Z,98377.41
2023-04-12T04:21:56.711Z,98374.91
2023-04-12T04:24:25.986Z,98376.13
2023-04-12T04:26:55.125Z,98374.80
2023-04-12T04:29:26.813Z,98374.27
2023-04-12T04:31:56.370Z,98368.12
2023-04-12T04:34:26.166Z,98364.02
2023-04-12T04:36:55.295Z,98366.58
2023-04-12T04:39:23.995Z,98369.39
2023-04-12T04:41:55.235Z,98370.77
2023-04-12T04:44:26.239Z,98371.67
2023-04-12T04:46:55.048Z,98375.39
2023-04-12T04:49:23.603Z,98377.69
2023-04-12T04:51:53.111Z,98382.52
2023-04-12T04:54:22.285Z,98383.00
2023-04-12T04:56:51.379Z,98386.36
2023-04-12T04:59:20.574Z,98387.86
2023-04-12T05:01:49.918Z,98386.41
2023-04-12T05:04:18.935Z,98386.30
2023-04-12T05:06:47.765Z,98384.43
2023-04-12T05:09:16.725Z,98382.27
2023-04-12T05:11:45.657Z,98377.20
2023-04-12T05:14:14.684Z,98379.90
2023-04-12T05:16:43.688Z,98377.21
2023-04-12T05:19:12.817Z,98380.44
2023-04-12T05:21:41.479Z,98375.57
2023-04-12T05:24:10.969Z,98371.05
2023-04-12T05:26:39.852Z,98367.42
2023-04-12T05:29:08.767Z,98367.15
2023-04-12T05:31:37.876Z,98367.74
2023-04-12T05:34:06.829Z,98365.52
2023-04-12T05:36:35.923Z,98371.95
2023-04-12T05:39:05.150Z,98371.31
2023-04-12T05:41:34.452Z,98375.38
2023-04-12T05:44:04.574Z,98377.26
2023-04-12T05:46:34.201Z,98380.61
2023-04-12T05:49:03.545Z,98372.85
2023-04-12T05:51:41.031Z,98369.64
2023-04-12T05:54:11.330Z,98369.59
2023-04-12T05:56:40.561Z,98372.48
2023-04-12T05:59:11.405Z,98363.40
2023-04-12T06:01:43.419Z,98360.27
2023-04-12T06:04:12.814Z,98358.49
2023-04-12T06:06:42.002Z,98364.55
2023-04-12T06:09:11.780Z,98358.88
2023-04-12T06:11:40.709Z,98347.84
2023-04-12T06:14:11.829Z,98347.70
2023-04-12T06:16:42.000Z,98358.54
2023-04-12T06:19:11.765Z,98359.98
2023-04-12T06:21:41.552Z,98357.15
2023-04-12T06:24:10.924Z,98356.95
2023-04-12T06:26:40.423Z,98353.87
2023-04-12T06:29:09.633Z,98354.02
2023-04-12T06:31:38.658Z,98347.64
2023-04-12T06:34:07.815Z,98341.08
2023-04-12T06:36:37.340Z,98337.13
2023-04-12T06:39:07.414Z,98334.23
2023-04-12T06:41:36.606Z,98334.75
2023-04-12T06:44:05.814Z,98334.33
2023-04-12T06:46:34.775Z,98333.15
2023-04-12T06:49:04.466Z,98334.05
2023-04-12T06:51:36.004Z,98333.02
2023-04-12T06:54:05.111Z,98331.58
2023-04-12T06:56:37.506Z,98331.80
2023-04-12T06:59:07.117Z,98321.92
2023-04-12T07:01:36.137Z,98323.17
2023-04-12T07:04:06.003Z,98324.45
2023-04-12T07:06:35.403Z,98319.86
2023-04-12T07:09:04.950Z,98311.34
2023-04-12T07:11:34.042Z,98310.38
2023-04-12T07:14:03.262Z,98306.15
2023-04-12T07:16:33.162Z,98302.75
2023-04-12T07:19:02.758Z,98304.07
2023-04-12T07:21:32.353Z,98291.30
2023-04-12T07:24:02.195Z,98291.59
2023-04-12T07:26:31.883Z,98285.70
2023-04-12T07:29:02.400Z,98285.47
2023-04-12T07:31:32.127Z,98284.61
2023-04-12T07:34:01.861Z,98279.48
2023-04-12T07:36:32.036Z,98280.79
2023-04-12T07:39:01.088Z,98280.40
2023-04-12T07:41:30.581Z,98276.77
2023-04-12T07:43:59.917Z,98277.81
2023-04-12T07:46:29.063Z,98278.14
2023-04-12T07:48:58.932Z,98270.08
2023-04-12T07:51:28.985Z,98270.11
2023-04-12T07:53:59.512Z,98274.44
2023-04-12T07:56:35.780Z,98272.77
2023-04-12T07:59:05.216Z,98270.48
2023-04-12T08:01:34.308Z,98270.65
2023-04-12T08:04:04.324Z,98270.88
2023-04-12T08:06:34.664Z,98275.45
2023-04-12T08:09:05.099Z,98277.16
2023-04-12T08:11:36.072Z,98286.03
2023-04-12T08:14:05.817Z,98290.50
2023-04-12T08:16:35.291Z,98283.77
2023-04-12T08:19:04.879Z,98286.71
2023-04-12T08:21:34.236Z,98289.34
2023-04-12T08:24:03.560Z,98280.37
2023-04-12T08:26:32.427Z,98280.41
2023-04-12T08:29:03.377Z,98282.92
2023-04-12T08:31:34.139Z,98281.23
2023-04-12T08:34:03.635Z,98284.96
2023-04-12T08:36:33.436Z,98280.95
2023-04-12T08:39:03.294Z,98279.06
2023-04-12T08:41:37.029Z,98270.35
2023-04-12T08:44:08.098Z,98267.77
2023-04-12T08:46:38.127Z,98264.04
2023-04-12T08:49:08.756Z,98264.16
2023-04-12T08:51:39.726Z,98261.46
2023-04-12T08:54:09.094Z,98259.08
2023-04-12T08:56:39.018Z,98256.30
2023-04-12T08:59:08.646Z,98254.70
2023-04-12T09:01:42.894Z,98258.23
2023-04-12T09:04:13.720Z,98257.48
2023-04-12T09:06:43.672Z,98255.95
2023-04-12T09:09:12.550Z,98246.56
2023-04-12T09:11:41.799Z,98240.58
2023-04-12T09:14:25.493Z,98239.00
2023-04-12T09:16:56.051Z,98240.33
2023-04-12T09:19:37.269Z,98239.41
2023-04-12T09:22:06.951Z,98234.08
2023-04-12T09:24:48.922Z,98238.47
2023-04-12T09:27:22.822Z,98239.58
2023-04-12T09:29:53.100Z,98234.48
2023-04-12T09:32:29.678Z,98228.72
2023-04-12T09:35:01.845Z,98230.78
2023-04-12T09:37:32.124Z,98232.16
2023-04-12T09:40:09.980Z,98231.41
2023-04-12T09:42:53.842Z,98227.64
2023-04-12T09:45:26.250Z,98219.20
2023-04-12T09:47:57.443Z,98223.59
2023-04-12T09:50:29.625Z,98223.42
2023-04-12T09:53:00.312Z,98224.73
2023-04-12T09:55:32.632Z,98226.06
2023-04-12T09:58:05.350Z,98219.41
2023-04-12T10:00:34.936Z,98216.49
2023-04-12T10:03:05.163Z,98212.25
2023-04-12T10:05:34.633Z,98209.16
2023-04-12T10:08:03.628Z,98204.40
2023-04-12T10:10:33.519Z,98204.75
2023-04-12T10:13:03.648Z,98201.71
2023-04-12T10:15:34.739Z,98203.21
2023-04-12T10:18:05.783Z,98203.18
2023-04-12T10:20:35.677Z,98202.15
2023-04-12T10:23:07.498Z,98200.33
2023-04-12T10:25:43.075Z,98207.13
2023-04-12T10:28:22.265Z,98207.29
2023-04-12T10:30:53.826Z,98210.88
2023-04-12T10:33:28.673Z,98205.59
2023-04-12T10:35:58.563Z,98205.65
2023-04-12T10:38:33.770Z,98200.62
2023-04-12T10:41:19.580Z,98198.81
2023-04-12T10:43:50.804Z,98191.97
2023-04-12T10:46:40.026Z,98198.17
2023-04-12T10:49:10.878Z,98196.84
2023-04-12T10:51:41.193Z,98194.47
2023-04-12T10:54:17.802Z,98188.81
2023-04-12T10:56:48.093Z,98190.35
2023-04-12T10:59:17.415Z,98183.86
2023-04-12T11:02:05.645Z,98188.33
2023-04-12T11:04:36.601Z,98188.27
2023-04-12T11:07:12.377Z,98181.31
2023-04-12T11:09:43.867Z,98180.40
2023-04-12T11:12:17.210Z,98173.86
2023-04-12T11:14:50.128Z,98171.98
2023-04-12T11:17:19.125Z,98168.64
2023-04-12T11:20:00.019Z,98163.34
2023-04-12T11:22:31.700Z,98157.81
2023-04-12T11:25:03.416Z,98154.48
2023-04-12T11:27:32.805Z,98143.46
2023-04-12T11:30:02.419Z,98147.48
2023-04-12T11:32:32.684Z,98144.38
2023-04-12T11:35:02.678Z,98140.66
2023-04-12T11:37:32.375Z,98138.38
2023-04-12T11:40:01.381Z,98135.54
2023-04-12T11:42:30.157Z,98135.76
2023-04-12T11:45:04.777Z,98131.66
2023-04-12T11:47:36.256Z,98129.08
2023-04-12T11:50:06.842Z,98125.81
2023-04-12T11:52:36.193Z,98129.84
2023-04-12T11:55:11.505Z,98131.71
2023-04-12T11:57:40.358Z,98125.44
2023-04-12T12:00:10.786Z,98113.84
2023-04-12T12:02:48.866Z,98111.06
2023-04-12T12:05:23.557Z,98113.54
2023-04-12T12:07:54.616Z,98115.62
2023-04-12T12:10:41.720Z,98110.88
2023-04-12T12:13:14.461Z,98105.48
2023-04-12T12:15:48.037Z,98098.08
2023-04-12T12:18:17.369Z,98091.99
2023-04-12T12:20:51.033Z,98087.70
2023-04-12T12:23:33.737Z,98082.40
2023-04-12T12:26:19.107Z,98075.14
2023-04-12T12:28:55.191Z,98070.79
2023-04-12T12:31:27.622Z,98066.79
2023-04-12T12:34:00.730Z,98064.26
2023-04-12T12:36:33.029Z,98059.08
2023-04-12T12:39:12.533Z,98059.77
2023-04-12T12:41:42.821Z,98055.60
2023-04-12T12:44:13.081Z,98054.83
2023-04-12T12:49:16.718Z,98056.85
2023-04-12T12:51:48.366Z,98053.78
2023-04-12T12:54:32.133Z,98054.03
2023-04-12T12:57:09.647Z,98051.55
2023-04-12T12:59:38.855Z,98048.67
2023-04-12T13:02:09.579Z,98047.02
2023-04-12T13:04:40.264Z,98042.35
2023-04-12T13:07:11.298Z,98036.57
2023-04-12T13:09:41.097Z,98029.02
2023-04-12T13:12:11.332Z,98022.42
2023-04-12T13:14:42.210Z,98011.48
2023-04-12T13:17:10.934Z,98011.16
2023-04-12T13:19:41.465Z,98013.80
2023-04-12T13:22:11.017Z,98013.98
2023-04-12T13:24:40.258Z,98011.67
2023-04-12T13:27:12.674Z,98007.28
2023-04-12T13:29:44.801Z,98012.02
2023-04-12T13:32:15.220Z,98007.33
2023-04-12T13:34:44.605Z,98006.73
2023-04-12T13:37:14.078Z,97996.95
2023-04-12T13:39:45.514Z,98000.23
2023-04-12T13:42:15.853Z,97995.77
2023-04-12T13:44:45.904Z,97994.36
2023-04-12T13:47:16.305Z,97989.86
2023-04-12T13:49:46.018Z,97982.45
2023-04-12T13:52:16.201Z,97977.92
2023-04-12T13:54:45.713Z,97978.16
2023-04-12T13:57:14.712Z,97978.38
2023-04-12T13:59:44.468Z,97971.03
2023-04-12T14:02:19.659Z,97964.55
2023-04-12T14:04:55.570Z,97964.96
2023-04-12T14:07:26.223Z,97965.26
2023-04-12T14:09:56.739Z,97957.59
2023-04-12T14:12:27.173Z,97962.39
2023-04-12T14:14:57.014Z,97961.65
2023-04-12T14:17:32.762Z,97955.87
2023-04-12T14:20:03.011Z,97953.86
2023-04-12T14:22:32.184Z,97947.61
2023-04-12T14:25:02.074Z,97941.55
2023-04-12T14:27:32.064Z,97940.33
2023-04-12T14:30:02.399Z,97941.70
2023-04-12T14:32:32.066Z,97942.55
2023-04-12T14:35:01.670Z,97944.52
2023-04-12T14:37:32.205Z,97948.44
2023-04-12T14:40:01.457Z,97948.55
2023-04-12T14:42:30.970Z,97944.05
2023-04-12T14:45:02.008Z,97948.56
2023-04-12T14:47:32.254Z,97949.83
2023-04-12T14:50:02.466Z,97940.52
2023-04-12T14:52:33.528Z,97932.50
2023-04-12T14:55:05.614Z,97937.73
2023-04-12T14:57:35.993Z,97930.37
2023-04-12T15:00:13.636Z,97937.95
2023-04-12T15:02:46.621Z,97938.57
2023-04-12T15:05:17.313Z,97936.55
2023-04-12T15:07:48.810Z,97935.76
2023-04-12T15:10:19.561Z,97932.20
2023-04-12T15:12:48.876Z,97925.65
2023-04-12T15:15:18.077Z,97924.30
2023-04-12T15:17:47.607Z,97928.29
2023-04-12T15:20:18.772Z,97928.49
2023-04-12T15:22:49.815Z,97923.67
2023-04-12T15:25:19.359Z,97929.68
2023-04-12T15:27:49.777Z,97925.56
2023-04-12T15:30:19.200Z,97916.92
2023-04-12T15:32:49.364Z,97915.29
2023-04-12T15:35:26.559Z,97915.11
2023-04-12T15:37:56.499Z,97914.46
2023-04-12T15:40:26.344Z,97915.92
2023-04-12T15:42:56.027Z,97923.29
2023-04-12T15:45:24.956Z,97918.65
2023-04-12T15:47:55.615Z,97915.41
2023-04-12T15:50:24.881Z,97918.92
2023-04-12T15:52:55.828Z,97925.58
2023-04-12T15:55:26.005Z,97925.81
2023-04-12T15:57:55.451Z,97921.28
2023-04-12T16:00:26.980Z,97925.38
2023-04-12T16:02:57.854Z,97916.92
2023-04-12T16:05:27.865Z,97922.77
2023-04-12T16:07:57.726Z,97924.73
2023-04-12T16:10:27.304Z,97929.80
2023-04-12T16:12:57.349Z,97938.84
2023-04-12T16:15:26.501Z,97939.54
2023-04-12T16:17:57.155Z,97929.79
2023-04-12T16:20:25.952Z,97933.88
2023-04-12T16:22:55.439Z,97934.79
2023-04-12T16:25:26.680Z,97939.25
2023-04-12T16:27:57.122Z,97943.56
2023-04-12T16:30:27.002Z,97941.35
2023-04-12T16:32:56.681Z,97941.29
2023-04-12T16:35:26.378Z,97935.16
2023-04-12T16:37:55.837Z,97933.61
2023-04-12T16:40:24.938Z,97932.71
2023-04-12T16:42:54.481Z,97929.33
2023-04-12T16:45:24.482Z,97932.27
2023-04-12T16:47:54.879Z,97929.26
2023-04-12T16:50:26.592Z,97927.52
2023-04-12T16:52:56.253Z,97924.88
2023-04-12T16:55:25.876Z,97930.50
2023-04-12T16:57:56.363Z,97928.62
2023-04-12T17:00:30.271Z,97931.54
2023-04-12T17:03:01.133Z,97925.64
2023-04-12T17:05:31.657Z,97928.31
2023-04-12T17:08:03.842Z,97927.20
2023-04-12T17:10:33.838Z,97927.70
2023-04-12T17:13:03.607Z,97930.54
2023-04-12T17:15:32.586Z,97931.16
2023-04-12T17:18:12.118Z,97931.47
2023-04-12T17:20:41.617Z,97931.70
2023-04-12T17:23:11.552Z,97934.73
2023-04-12T17:25:42.331Z,97938.46
2023-04-12T17:28:12.272Z,97936.20
2023-04-12T17:30:41.794Z,97935.55
2023-04-12T17:33:10.966Z,97935.27
2023-04-12T17:35:41.185Z,97938.00
2023-04-12T17:38:10.202Z,97940.81
2023-04-12T17:40:39.392Z,97943.83
2023-04-12T17:43:08.787Z,97943.01
2023-04-12T17:45:37.868Z,97946.30
2023-04-12T17:48:11.471Z,97948.84
2023-04-12T17:50:42.083Z,97954.70
2023-04-12T17:53:12.754Z,97959.56
2023-04-12T17:55:42.690Z,97963.31
2023-04-12T17:58:12.640Z,97965.46
2023-04-12T18:00:43.730Z,97965.47
2023-04-12T18:03:13.552Z,97962.05
2023-04-12T18:05:43.421Z,97968.42
2023-04-12T18:08:13.123Z,97968.55
2023-04-12T18:10:42.517Z,97968.29
2023-04-12T18:13:11.611Z,97971.70
2023-04-12T18:15:40.599Z,97978.44
2023-04-12T18:18:09.733Z,97982.17
2023-04-12T18:20:39.204Z,97981.40
2023-04-12T18:23:08.066Z,97979.43
2023-04-12T18:25:39.065Z,97980.14
2023-04-12T18:28:09.188Z,97983.89
2023-04-12T18:30:38.397Z,97987.79
2023-04-12T18:33:09.062Z,97990.63
2023-04-12T18:35:41.903Z,97988.96
2023-04-12T18:38:11.941Z,97987.52
2023-04-12T18:40:41.482Z,97988.06
2023-04-12T18:43:11.178Z,97988.91
2023-04-12T18:45:41.610Z,97990.88
2023-04-12T18:48:11.830Z,97994.35
2023-04-12T18:50:41.198Z,97990.15
2023-04-12T18:53:11.149Z,97992.06
2023-04-12T18:55:40.274Z,97984.15
2023-04-12T18:58:09.775Z,97992.84
2023-04-12T19:00:39.299Z,97992.13
2023-04-12T19:03:09.889Z,97990.94
2023-04-12T19:05:41.525Z,97989.66
2023-04-12T19:08:12.754Z,97986.81
2023-04-12T19:10:43.453Z,97984.05
2023-04-12T19:13:13.574Z,97983.34
2023-04-12T19:15:44.772Z,97984.85
2023-04-12T19:18:16.808Z,97991.43
2023-04-12T19:20:47.717Z,97993.98
2023-04-12T19:23:18.489Z,97996.70
2023-04-12T19:25:50.529Z,97998.06
2023-04-12T19:28:25.215Z,98000.94
2023-04-12T19:31:00.177Z,98000.39
2023-04-12T19:33:32.967Z,98006.09
2023-04-12T19:36:07.173Z,98008.46
2023-04-12T19:38:53.893Z,98008.46
2023-04-12T19:41:26.648Z,98007.27
2023-04-12T19:43:58.392Z,98006.23
2023-04-12T19:46:29.980Z,98000.80
2023-04-12T19:49:04.723Z,98002.44
2023-04-12T19:51:48.439Z,98003.46
2023-04-12T19:54:30.097Z,98006.61
2023-04-12T19:57:05.885Z,98008.98
2023-04-12T19:59:40.147Z,98003.71
2023-04-12T20:02:22.232Z,98006.21
2023-04-12T20:05:02.835Z,98000.04
2023-04-12T20:07:36.882Z,98005.16
2023-04-12T20:10:23.267Z,97996.38
2023-04-12T20:12:56.163Z,97985.58
2023-04-12T20:15:33.138Z,97978.20
2023-04-12T20:18:09.007Z,97976.85
2023-04-12T20:20:46.167Z,97978.39
2023-04-12T20:23:22.802Z,97969.25
2023-04-12T20:25:58.645Z,97968.27
2023-04-12T20:28:39.490Z,97960.24
2023-04-12T20:31:19.140Z,97955.52
2023-04-12T20:33:59.329Z,97952.02
2023-04-12T20:36:34.288Z,97941.85
2023-04-12T20:39:07.515Z,97934.15
2023-04-12T20:41:41.344Z,97926.57
2023-04-12T20:44:19.442Z,97920.55
2023-04-12T20:47:01.871Z,97917.20
2023-04-12T20:49:41.642Z,97922.90
2023-04-12T20:52:24.268Z,97923.23
2023-04-12T20:55:02.447Z,97923.06
2023-04-12T20:57:38.901Z,97920.95
2023-04-12T21:00:19.414Z,97920.70
2023-04-12T21:02:52.797Z,97921.34
2023-04-12T21:05:24.242Z,97921.42
2023-04-12T21:07:55.729Z,97917.05
2023-04-12T21:10:30.755Z,97918.20
2023-04-12T21:13:02.814Z,97917.98
2023-04-12T21:15:35.873Z,97913.23
2023-04-12T21:18:05.601Z,97912.17
2023-04-12T21:20:35.109Z,97908.27
2023-04-12T21:23:07.145Z,97909.56
2023-04-12T21:25:36.415Z,97904.69
2023-04-12T21:28:09.336Z,97899.64
2023-04-12T21:30:43.061Z,97896.42
2023-04-12T21:33:25.618Z,97893.04
2023-04-12T21:35:56.723Z,97889.21
2023-04-12T21:38:26.326Z,97885.81
2023-04-12T21:40:58.030Z,97883.21
2023-04-12T21:43:27.706Z,97883.09
2023-04-12T21:45:56.958Z,97879.41
2023-04-12T21:48:25.837Z,97876.92
2023-04-12T21:50:55.672Z,97875.46
2023-04-12T21:53:24.517Z,97874.48
2023-04-12T21:55:53.696Z,97874.44
2023-04-12T21:58:24.175Z,97871.29
2023-04-12T22:00:53.996Z,97868.14
2023-04-12T22:03:25.678Z,97868.83
2023-04-12T22:06:04.075Z,97874.40
2023-04-12T22:08:34.359Z,97871.83
2023-04-12T22:11:03.833Z,97865.84
2023-04-12T22:13:34.838Z,97861.55
2023-04-12T22:16:04.656Z,97860.13
2023-04-12T22:18:34.422Z,97866.91
2023-04-12T22:21:04.566Z,97867.46
2023-04-12T22:23:34.030Z,97858.31
2023-04-12T22:26:08.334Z,97856.04
2023-04-12T22:28:38.847Z,97859.61
2023-04-12T22:31:11.354Z,97859.57
2023-04-12T22:33:40.968Z,97851.45
2023-04-12T22:36:10.578Z,97858.02
2023-04-12T22:38:39.473Z,97866.91
2023-04-12T22:41:08.478Z,97875.11
2023-04-12T22:43:43.196Z,97872.44
2023-04-12T22:46:18.446Z,97864.58
2023-04-12T22:48:48.253Z,97864.47
2023-04-12T22:51:17.289Z,97875.95
2023-04-12T22:53:46.623Z,97883.14
2023-04-12T22:56:15.503Z,97882.84
2023-04-12T22:58:44.636Z,97880.20
2023-04-12T23:01:16.213Z,97881.69
2023-04-12T23:03:49.900Z,97883.58
2023-04-12T23:06:23.357Z,97877.11
2023-04-12T23:08:58.814Z,97871.88
2023-04-12T23:11:30.861Z,97869.07
2023-04-12T23:14:02.171Z,97868.94
2023-04-12T23:16:34.426Z,97870.89
2023-04-12T23:19:07.239Z,97862.98
2023-04-12T23:21:36.652Z,97859.48
2023-04-12T23:24:06.691Z,97851.16
2023-04-12T23:26:36.379Z,97844.04
2023-04-12T23:29:06.596Z,97851.65
2023-04-12T23:31:35.349Z,97847.72
2023-04-12T23:34:06.923Z,97844.21
2023-04-12T23:36:37.168Z,97841.88
2023-04-12T23:39:09.645Z,97835.63
2023-04-12T23:41:41.048Z,97841.55
2023-04-12T23:44:13.788Z,97842.73
2023-04-12T23:46:46.254Z,97842.08
2023-04-12T23:49:20.434Z,97835.52
2023-04-12T23:51:51.360Z,97829.48
2023-04-12T23:54:22.849Z,97825.86
2023-04-12T23:56:53.296Z,97820.77
2023-04-12T23:59:23.074Z,97822.09
